sensor_id;sensor_type;location;lat;lon;timestamp;P1;durP1;ratioP1;P2;durP2;ratioP2
61903;SDS011;47857;52.270;6.804;2023-03-23T00:02:25;9.90;;;5.18;;
61903;SDS011;47857;52.270;6.804;2023-03-23T00:04:57;9.80;;;5.00;;
61903;SDS011;47857;52.270;6.804;2023-03-23T00:07:25;9.82;;;4.70;;
61903;SDS011;47857;52.270;6.804;2023-03-23T00:09:53;10.90;;;4.45;;
61903;SDS011;47857;52.270;6.804;2023-03-23T00:12:20;9.27;;;4.47;;
61903;SDS011;47857;52.270;6.804;2023-03-23T00:14:57;13.00;;;4.85;;
61903;SDS011;47857;52.270;6.804;2023-03-23T00:17:22;9.32;;;4.50;;
61903;SDS011;47857;52.270;6.804;2023-03-23T00:19:48;8.30;;;4.32;;
61903;SDS011;47857;52.270;6.804;2023-03-23T00:22:14;10.02;;;4.38;;
61903;SDS011;47857;52.270;6.804;2023-03-23T00:24:42;10.57;;;4.55;;
61903;SDS011;47857;52.270;6.804;2023-03-23T00:27:09;12.68;;;4.53;;
61903;SDS011;47857;52.270;6.804;2023-03-23T00:29:38;6.57;;;3.83;;
61903;SDS011;47857;52.270;6.804;2023-03-23T00:32:04;8.60;;;4.13;;
61903;SDS011;47857;52.270;6.804;2023-03-23T00:34:31;9.57;;;4.30;;
61903;SDS011;47857;52.270;6.804;2023-03-23T00:36:58;7.68;;;4.25;;
61903;SDS011;47857;52.270;6.804;2023-03-23T00:39:24;6.97;;;3.75;;
61903;SDS011;47857;52.270;6.804;2023-03-23T00:41:52;9.13;;;3.78;;
61903;SDS011;47857;52.270;6.804;2023-03-23T00:44:19;7.43;;;3.67;;
61903;SDS011;47857;52.270;6.804;2023-03-23T00:46:48;10.45;;;4.50;;
61903;SDS011;47857;52.270;6.804;2023-03-23T00:49:15;8.50;;;3.80;;
61903;SDS011;47857;52.270;6.804;2023-03-23T00:51:43;11.27;;;3.55;;
61903;SDS011;47857;52.270;6.804;2023-03-23T00:54:09;8.38;;;3.75;;
61903;SDS011;47857;52.270;6.804;2023-03-23T00:56:34;6.70;;;3.70;;
61903;SDS011;47857;52.270;6.804;2023-03-23T00:59:00;10.57;;;4.10;;
61903;SDS011;47857;52.270;6.804;2023-03-23T01:01:27;10.00;;;3.72;;
61903;SDS011;47857;52.270;6.804;2023-03-23T01:03:52;6.72;;;3.92;;
61903;SDS011;47857;52.270;6.804;2023-03-23T01:06:26;8.60;;;3.75;;
61903;SDS011;47857;52.270;6.804;2023-03-23T01:08:52;8.10;;;3.78;;
61903;SDS011;47857;52.270;6.804;2023-03-23T01:11:19;7.85;;;3.65;;
61903;SDS011;47857;52.270;6.804;2023-03-23T01:13:45;6.57;;;3.35;;
61903;SDS011;47857;52.270;6.804;2023-03-23T01:16:11;6.60;;;3.20;;
61903;SDS011;47857;52.270;6.804;2023-03-23T01:18:37;6.60;;;3.58;;
61903;SDS011;47857;52.270;6.804;2023-03-23T01:21:04;6.22;;;3.03;;
61903;SDS011;47857;52.270;6.804;2023-03-23T01:23:32;10.00;;;3.60;;
61903;SDS011;47857;52.270;6.804;2023-03-23T01:26:02;5.95;;;3.20;;
61903;SDS011;47857;52.270;6.804;2023-03-23T01:28:28;7.28;;;3.13;;
61903;SDS011;47857;52.270;6.804;2023-03-23T01:30:58;5.78;;;3.13;;
61903;SDS011;47857;52.270;6.804;2023-03-23T01:33:35;5.70;;;3.42;;
61903;SDS011;47857;52.270;6.804;2023-03-23T01:36:07;6.95;;;3.45;;
61903;SDS011;47857;52.270;6.804;2023-03-23T01:38:42;7.78;;;3.28;;
61903;SDS011;47857;52.270;6.804;2023-03-23T01:41:09;6.90;;;3.47;;
61903;SDS011;47857;52.270;6.804;2023-03-23T01:43:35;8.10;;;3.50;;
61903;SDS011;47857;52.270;6.804;2023-03-23T01:46:01;5.70;;;3.10;;
61903;SDS011;47857;52.270;6.804;2023-03-23T01:48:33;5.57;;;2.95;;
61903;SDS011;47857;52.270;6.804;2023-03-23T01:51:05;6.70;;;3.17;;
61903;SDS011;47857;52.270;6.804;2023-03-23T01:53:54;6.22;;;3.20;;
61903;SDS011;47857;52.270;6.804;2023-03-23T01:56:27;6.55;;;3.20;;
61903;SDS011;47857;52.270;6.804;2023-03-23T01:58:58;7.23;;;3.17;;
61903;SDS011;47857;52.270;6.804;2023-03-23T02:01:24;7.82;;;3.35;;
61903;SDS011;47857;52.270;6.804;2023-03-23T02:03:51;6.57;;;3.50;;
61903;SDS011;47857;52.270;6.804;2023-03-23T02:06:18;7.05;;;3.38;;
61903;SDS011;47857;52.270;6.804;2023-03-23T02:09:00;8.15;;;3.45;;
61903;SDS011;47857;52.270;6.804;2023-03-23T02:11:27;10.52;;;3.65;;
61903;SDS011;47857;52.270;6.804;2023-03-23T02:13:53;9.45;;;3.25;;
61903;SDS011;47857;52.270;6.804;2023-03-23T02:16:28;8.32;;;3.60;;
61903;SDS011;47857;52.270;6.804;2023-03-23T02:34:20;6.38;;;3.08;;
61903;SDS011;47857;52.270;6.804;2023-03-23T02:37:00;5.63;;;3.05;;
61903;SDS011;47857;52.270;6.804;2023-03-23T02:39:30;5.75;;;3.00;;
61903;SDS011;47857;52.270;6.804;2023-03-23T02:42:05;5.95;;;2.88;;
61903;SDS011;47857;52.270;6.804;2023-03-23T02:44:34;7.13;;;3.55;;
61903;SDS011;47857;52.270;6.804;2023-03-23T02:47:02;4.88;;;2.80;;
61903;SDS011;47857;52.270;6.804;2023-03-23T02:49:31;6.43;;;2.83;;
61903;SDS011;47857;52.270;6.804;2023-03-23T02:51:58;5.57;;;3.17;;
61903;SDS011;47857;52.270;6.804;2023-03-23T02:54:25;6.03;;;2.97;;
61903;SDS011;47857;52.270;6.804;2023-03-23T02:56:52;5.15;;;3.20;;
61903;SDS011;47857;52.270;6.804;2023-03-23T02:59:25;8.60;;;3.30;;
61903;SDS011;47857;52.270;6.804;2023-03-23T03:01:53;5.80;;;3.20;;
61903;SDS011;47857;52.270;6.804;2023-03-23T03:04:24;4.45;;;3.22;;
61903;SDS011;47857;52.270;6.804;2023-03-23T03:07:10;5.10;;;3.28;;
61903;SDS011;47857;52.270;6.804;2023-03-23T03:12:32;6.75;;;3.63;;
61903;SDS011;47857;52.270;6.804;2023-03-23T03:17:53;8.75;;;3.67;;
61903;SDS011;47857;52.270;6.804;2023-03-23T03:20:26;6.65;;;3.50;;
61903;SDS011;47857;52.270;6.804;2023-03-23T03:22:53;6.63;;;3.67;;
61903;SDS011;47857;52.270;6.804;2023-03-23T03:25:19;6.28;;;3.50;;
61903;SDS011;47857;52.270;6.804;2023-03-23T03:27:46;7.90;;;3.67;;
61903;SDS011;47857;52.270;6.804;2023-03-23T03:30:22;10.18;;;3.53;;
61903;SDS011;47857;52.270;6.804;2023-03-23T03:32:52;5.80;;;3.83;;
61903;SDS011;47857;52.270;6.804;2023-03-23T03:35:21;6.22;;;3.55;;
61903;SDS011;47857;52.270;6.804;2023-03-23T03:37:48;6.25;;;3.40;;
61903;SDS011;47857;52.270;6.804;2023-03-23T03:40:17;7.00;;;3.75;;
61903;SDS011;47857;52.270;6.804;2023-03-23T03:42:44;5.35;;;3.30;;
61903;SDS011;47857;52.270;6.804;2023-03-23T03:45:11;6.35;;;3.80;;
61903;SDS011;47857;52.270;6.804;2023-03-23T03:47:39;7.70;;;3.85;;
61903;SDS011;47857;52.270;6.804;2023-03-23T03:50:05;6.15;;;3.30;;
61903;SDS011;47857;52.270;6.804;2023-03-23T03:52:31;8.05;;;3.47;;
61903;SDS011;47857;52.270;6.804;2023-03-23T03:54:58;6.85;;;3.78;;
61903;SDS011;47857;52.270;6.804;2023-03-23T03:57:24;5.82;;;3.30;;
61903;SDS011;47857;52.270;6.804;2023-03-23T04:00:09;6.10;;;3.13;;
61903;SDS011;47857;52.270;6.804;2023-03-23T04:02:42;6.28;;;3.47;;
61903;SDS011;47857;52.270;6.804;2023-03-23T04:05:12;5.97;;;2.97;;
61903;SDS011;47857;52.270;6.804;2023-03-23T04:07:39;4.93;;;3.30;;
61903;SDS011;47857;52.270;6.804;2023-03-23T04:10:05;4.03;;;3.38;;
61903;SDS011;47857;52.270;6.804;2023-03-23T04:12:33;6.15;;;3.50;;
61903;SDS011;47857;52.270;6.804;2023-03-23T04:15:28;6.85;;;3.35;;
61903;SDS011;47857;52.270;6.804;2023-03-23T04:17:54;7.03;;;3.33;;
61903;SDS011;47857;52.270;6.804;2023-03-23T04:20:22;6.68;;;3.38;;
61903;SDS011;47857;52.270;6.804;2023-03-23T04:22:49;6.38;;;3.60;;
61903;SDS011;47857;52.270;6.804;2023-03-23T04:25:16;6.45;;;3.55;;
61903;SDS011;47857;52.270;6.804;2023-03-23T04:27:49;5.82;;;3.53;;
61903;SDS011;47857;52.270;6.804;2023-03-23T04:30:24;6.00;;;3.50;;
61903;SDS011;47857;52.270;6.804;2023-03-23T04:33:00;5.97;;;3.83;;
61903;SDS011;47857;52.270;6.804;2023-03-23T04:35:27;6.60;;;3.83;;
61903;SDS011;47857;52.270;6.804;2023-03-23T04:38:17;7.07;;;3.70;;
61903;SDS011;47857;52.270;6.804;2023-03-23T04:40:49;6.93;;;3.75;;
61903;SDS011;47857;52.270;6.804;2023-03-23T04:43:35;5.65;;;3.58;;
61903;SDS011;47857;52.270;6.804;2023-03-23T04:46:32;6.72;;;3.78;;
61903;SDS011;47857;52.270;6.804;2023-03-23T04:49:05;8.63;;;3.80;;
61903;SDS011;47857;52.270;6.804;2023-03-23T04:51:34;4.80;;;3.55;;
61903;SDS011;47857;52.270;6.804;2023-03-23T04:54:12;7.43;;;3.70;;
61903;SDS011;47857;52.270;6.804;2023-03-23T04:56:39;5.00;;;3.40;;
61903;SDS011;47857;52.270;6.804;2023-03-23T04:59:10;5.78;;;3.22;;
61903;SDS011;47857;52.270;6.804;2023-03-23T05:01:58;5.30;;;3.30;;
61903;SDS011;47857;52.270;6.804;2023-03-23T05:04:25;5.45;;;3.50;;
61903;SDS011;47857;52.270;6.804;2023-03-23T05:07:12;6.20;;;3.58;;
61903;SDS011;47857;52.270;6.804;2023-03-23T05:09:46;5.07;;;3.28;;
61903;SDS011;47857;52.270;6.804;2023-03-23T05:12:12;7.25;;;3.33;;
61903;SDS011;47857;52.270;6.804;2023-03-23T05:14:52;6.00;;;3.05;;
61903;SDS011;47857;52.270;6.804;2023-03-23T05:17:20;5.60;;;3.17;;
61903;SDS011;47857;52.270;6.804;2023-03-23T05:19:49;6.80;;;3.08;;
61903;SDS011;47857;52.270;6.804;2023-03-23T05:22:54;7.18;;;3.28;;
61903;SDS011;47857;52.270;6.804;2023-03-23T05:25:27;6.07;;;3.50;;
61903;SDS011;47857;52.270;6.804;2023-03-23T05:27:59;6.20;;;3.50;;
61903;SDS011;47857;52.270;6.804;2023-03-23T05:30:45;10.57;;;6.63;;
61903;SDS011;47857;52.270;6.804;2023-03-23T05:33:13;12.93;;;6.00;;
61903;SDS011;47857;52.270;6.804;2023-03-23T05:35:59;6.55;;;4.57;;
61903;SDS011;47857;52.270;6.804;2023-03-23T05:38:31;8.82;;;4.47;;
61903;SDS011;47857;52.270;6.804;2023-03-23T05:40:58;11.30;;;5.53;;
61903;SDS011;47857;52.270;6.804;2023-03-23T05:43:30;6.43;;;3.70;;
61903;SDS011;47857;52.270;6.804;2023-03-23T05:46:19;4.47;;;3.30;;
61903;SDS011;47857;52.270;6.804;2023-03-23T05:48:45;5.88;;;3.30;;
61903;SDS011;47857;52.270;6.804;2023-03-23T05:51:15;7.07;;;3.15;;
61903;SDS011;47857;52.270;6.804;2023-03-23T05:53:43;6.47;;;3.28;;
61903;SDS011;47857;52.270;6.804;2023-03-23T05:56:10;5.15;;;3.10;;
61903;SDS011;47857;52.270;6.804;2023-03-23T05:59:02;6.95;;;3.33;;
61903;SDS011;47857;52.270;6.804;2023-03-23T06:01:31;6.32;;;3.10;;
61903;SDS011;47857;52.270;6.804;2023-03-23T06:03:57;9.85;;;3.40;;
61903;SDS011;47857;52.270;6.804;2023-03-23T06:06:33;5.93;;;3.10;;
61903;SDS011;47857;52.270;6.804;2023-03-23T06:09:05;8.23;;;3.03;;
61903;SDS011;47857;52.270;6.804;2023-03-23T06:11:45;6.95;;;2.83;;
61903;SDS011;47857;52.270;6.804;2023-03-23T06:14:41;10.73;;;3.80;;
61903;SDS011;47857;52.270;6.804;2023-03-23T06:17:08;7.82;;;3.30;;
61903;SDS011;47857;52.270;6.804;2023-03-23T06:19:34;6.25;;;3.08;;
61903;SDS011;47857;52.270;6.804;2023-03-23T06:22:09;9.20;;;3.00;;
61903;SDS011;47857;52.270;6.804;2023-03-23T06:24:54;8.77;;;2.88;;
61903;SDS011;47857;52.270;6.804;2023-03-23T06:27:27;8.23;;;2.85;;
61903;SDS011;47857;52.270;6.804;2023-03-23T06:29:54;8.43;;;3.00;;
61903;SDS011;47857;52.270;6.804;2023-03-23T06:32:23;10.63;;;2.63;;
61903;SDS011;47857;52.270;6.804;2023-03-23T06:34:50;9.02;;;2.90;;
61903;SDS011;47857;52.270;6.804;2023-03-23T06:37:39;10.40;;;2.80;;
61903;SDS011;47857;52.270;6.804;2023-03-23T06:40:19;9.63;;;2.53;;
61903;SDS011;47857;52.270;6.804;2023-03-23T06:42:52;7.53;;;2.50;;
61903;SDS011;47857;52.270;6.804;2023-03-23T06:45:36;6.60;;;2.80;;
61903;SDS011;47857;52.270;6.804;2023-03-23T06:48:20;10.25;;;2.80;;
61903;SDS011;47857;52.270;6.804;2023-03-23T06:50:47;10.20;;;2.92;;
61903;SDS011;47857;52.270;6.804;2023-03-23T06:53:15;10.90;;;2.70;;
61903;SDS011;47857;52.270;6.804;2023-03-23T06:55:43;13.68;;;3.38;;
61903;SDS011;47857;52.270;6.804;2023-03-23T06:58:09;8.93;;;2.70;;
61903;SDS011;47857;52.270;6.804;2023-03-23T07:00:35;10.00;;;2.88;;
61903;SDS011;47857;52.270;6.804;2023-03-23T07:03:02;9.35;;;2.80;;
61903;SDS011;47857;52.270;6.804;2023-03-23T07:05:28;10.80;;;2.53;;
61903;SDS011;47857;52.270;6.804;2023-03-23T07:07:54;9.40;;;2.60;;
61903;SDS011;47857;52.270;6.804;2023-03-23T07:10:30;8.23;;;2.75;;
61903;SDS011;47857;52.270;6.804;2023-03-23T07:12:58;8.80;;;2.53;;
61903;SDS011;47857;52.270;6.804;2023-03-23T07:15:26;11.15;;;2.53;;
61903;SDS011;47857;52.270;6.804;2023-03-23T07:17:54;8.65;;;2.53;;
61903;SDS011;47857;52.270;6.804;2023-03-23T07:20:35;10.38;;;3.10;;
61903;SDS011;47857;52.270;6.804;2023-03-23T07:23:01;8.05;;;2.83;;
61903;SDS011;47857;52.270;6.804;2023-03-23T07:25:47;11.07;;;2.60;;
61903;SDS011;47857;52.270;6.804;2023-03-23T07:28:18;5.75;;;2.42;;
61903;SDS011;47857;52.270;6.804;2023-03-23T07:30:45;7.93;;;2.53;;
61903;SDS011;47857;52.270;6.804;2023-03-23T07:33:11;8.43;;;2.83;;
61903;SDS011;47857;52.270;6.804;2023-03-23T07:35:37;9.20;;;2.40;;
61903;SDS011;47857;52.270;6.804;2023-03-23T07:38:06;10.75;;;2.95;;
61903;SDS011;47857;52.270;6.804;2023-03-23T07:40:33;7.35;;;2.50;;
61903;SDS011;47857;52.270;6.804;2023-03-23T07:43:04;7.47;;;2.67;;
61903;SDS011;47857;52.270;6.804;2023-03-23T07:45:53;9.52;;;2.90;;
61903;SDS011;47857;52.270;6.804;2023-03-23T07:48:22;9.30;;;3.00;;
61903;SDS011;47857;52.270;6.804;2023-03-23T07:50:50;10.00;;;2.85;;
61903;SDS011;47857;52.270;6.804;2023-03-23T07:53:16;10.48;;;2.60;;
61903;SDS011;47857;52.270;6.804;2023-03-23T07:55:47;6.13;;;2.50;;
61903;SDS011;47857;52.270;6.804;2023-03-23T07:58:35;9.88;;;2.67;;
61903;SDS011;47857;52.270;6.804;2023-03-23T08:01:01;9.00;;;2.38;;
61903;SDS011;47857;52.270;6.804;2023-03-23T08:03:30;11.90;;;2.92;;
61903;SDS011;47857;52.270;6.804;2023-03-23T08:06:11;6.35;;;2.50;;
61903;SDS011;47857;52.270;6.804;2023-03-23T08:08:58;11.60;;;2.65;;
61903;SDS011;47857;52.270;6.804;2023-03-23T08:12:10;8.35;;;2.38;;
61903;SDS011;47857;52.270;6.804;2023-03-23T08:15:04;9.13;;;2.60;;
61903;SDS011;47857;52.270;6.804;2023-03-23T08:17:50;11.45;;;3.08;;
61903;SDS011;47857;52.270;6.804;2023-03-23T08:20:36;11.13;;;2.10;;
61903;SDS011;47857;52.270;6.804;2023-03-23T08:23:17;8.90;;;2.30;;
61903;SDS011;47857;52.270;6.804;2023-03-23T08:25:59;8.63;;;2.35;;
61903;SDS011;47857;52.270;6.804;2023-03-23T08:28:40;13.43;;;2.20;;
61903;SDS011;47857;52.270;6.804;2023-03-23T08:31:25;8.95;;;2.10;;
61903;SDS011;47857;52.270;6.804;2023-03-23T08:34:18;11.20;;;2.20;;
61903;SDS011;47857;52.270;6.804;2023-03-23T08:37:11;10.02;;;2.20;;
61903;SDS011;47857;52.270;6.804;2023-03-23T08:39:39;10.65;;;2.05;;
61903;SDS011;47857;52.270;6.804;2023-03-23T08:42:31;8.35;;;1.83;;
61903;SDS011;47857;52.270;6.804;2023-03-23T08:45:26;4.88;;;1.35;;
61903;SDS011;47857;52.270;6.804;2023-03-23T08:47:57;6.43;;;1.73;;
61903;SDS011;47857;52.270;6.804;2023-03-23T08:50:27;7.25;;;1.70;;
61903;SDS011;47857;52.270;6.804;2023-03-23T08:52:59;5.70;;;1.40;;
61903;SDS011;47857;52.270;6.804;2023-03-23T08:55:53;7.35;;;1.50;;
61903;SDS011;47857;52.270;6.804;2023-03-23T08:58:32;4.03;;;1.08;;
61903;SDS011;47857;52.270;6.804;2023-03-23T09:01:02;5.47;;;1.17;;
61903;SDS011;47857;52.270;6.804;2023-03-23T09:03:49;4.30;;;1.00;;
61903;SDS011;47857;52.270;6.804;2023-03-23T09:06:28;5.38;;;1.60;;
61903;SDS011;47857;52.270;6.804;2023-03-23T09:08:54;6.07;;;1.35;;
61903;SDS011;47857;52.270;6.804;2023-03-23T09:11:24;5.90;;;1.20;;
61903;SDS011;47857;52.270;6.804;2023-03-23T09:13:50;6.22;;;1.30;;
61903;SDS011;47857;52.270;6.804;2023-03-23T09:16:15;6.63;;;1.52;;
61903;SDS011;47857;52.270;6.804;2023-03-23T09:18:41;5.85;;;1.50;;
61903;SDS011;47857;52.270;6.804;2023-03-23T09:21:06;4.38;;;1.30;;
61903;SDS011;47857;52.270;6.804;2023-03-23T09:23:33;8.40;;;1.55;;
61903;SDS011;47857;52.270;6.804;2023-03-23T09:26:02;7.18;;;1.63;;
61903;SDS011;47857;52.270;6.804;2023-03-23T09:28:28;5.85;;;1.42;;
61903;SDS011;47857;52.270;6.804;2023-03-23T09:30:55;7.20;;;1.75;;
61903;SDS011;47857;52.270;6.804;2023-03-23T09:33:24;6.80;;;1.70;;
61903;SDS011;47857;52.270;6.804;2023-03-23T09:35:51;9.65;;;2.08;;
61903;SDS011;47857;52.270;6.804;2023-03-23T09:38:17;6.45;;;1.70;;
61903;SDS011;47857;52.270;6.804;2023-03-23T09:40:49;6.70;;;1.80;;
61903;SDS011;47857;52.270;6.804;2023-03-23T09:54:13;8.82;;;1.98;;
61903;SDS011;47857;52.270;6.804;2023-03-23T09:56:48;9.65;;;1.95;;
61903;SDS011;47857;52.270;6.804;2023-03-23T10:02:14;7.05;;;1.95;;
61903;SDS011;47857;52.270;6.804;2023-03-23T10:04:48;6.95;;;2.15;;
61903;SDS011;47857;52.270;6.804;2023-03-23T10:09:41;7.22;;;1.73;;
61903;SDS011;47857;52.270;6.804;2023-03-23T10:12:14;8.02;;;1.98;;
61903;SDS011;47857;52.270;6.804;2023-03-23T10:20:32;7.10;;;1.95;;
61903;SDS011;47857;52.270;6.804;2023-03-23T10:25:43;9.00;;;2.33;;
61903;SDS011;47857;52.270;6.804;2023-03-23T10:28:42;6.70;;;2.22;;
61903;SDS011;47857;52.270;6.804;2023-03-23T10:31:10;8.52;;;2.55;;
61903;SDS011;47857;52.270;6.804;2023-03-23T10:33:39;7.97;;;2.05;;
61903;SDS011;47857;52.270;6.804;2023-03-23T10:36:15;6.57;;;1.85;;
61903;SDS011;47857;52.270;6.804;2023-03-23T10:38:53;5.95;;;1.50;;
61903;SDS011;47857;52.270;6.804;2023-03-23T10:41:23;6.18;;;1.48;;
61903;SDS011;47857;52.270;6.804;2023-03-23T10:43:49;7.13;;;1.60;;
61903;SDS011;47857;52.270;6.804;2023-03-23T10:46:21;5.85;;;1.52;;
61903;SDS011;47857;52.270;6.804;2023-03-23T10:49:23;6.78;;;1.70;;
61903;SDS011;47857;52.270;6.804;2023-03-23T10:52:10;5.75;;;1.48;;
61903;SDS011;47857;52.270;6.804;2023-03-23T10:54:39;12.70;;;3.92;;
61903;SDS011;47857;52.270;6.804;2023-03-23T10:57:12;27.10;;;12.85;;
61903;SDS011;47857;52.270;6.804;2023-03-23T10:59:45;9.82;;;2.85;;
61903;SDS011;47857;52.270;6.804;2023-03-23T11:02:15;10.30;;;4.15;;
61903;SDS011;47857;52.270;6.804;2023-03-23T11:05:02;9.55;;;3.08;;
61903;SDS011;47857;52.270;6.804;2023-03-23T11:07:31;12.63;;;5.05;;
61903;SDS011;47857;52.270;6.804;2023-03-23T11:10:07;11.10;;;2.33;;
61903;SDS011;47857;52.270;6.804;2023-03-23T11:12:46;9.95;;;1.90;;
61903;SDS011;47857;52.270;6.804;2023-03-23T11:15:16;9.95;;;2.00;;
61903;SDS011;47857;52.270;6.804;2023-03-23T11:17:55;9.35;;;1.80;;
61903;SDS011;47857;52.270;6.804;2023-03-23T11:20:32;12.48;;;2.08;;
61903;SDS011;47857;52.270;6.804;2023-03-23T11:23:01;6.97;;;1.73;;
61903;SDS011;47857;52.270;6.804;2023-03-23T11:25:32;7.38;;;2.03;;
61903;SDS011;47857;52.270;6.804;2023-03-23T11:27:58;10.85;;;2.95;;
61903;SDS011;47857;52.270;6.804;2023-03-23T11:30:26;8.80;;;1.98;;
61903;SDS011;47857;52.270;6.804;2023-03-23T11:32:53;7.90;;;1.90;;
61903;SDS011;47857;52.270;6.804;2023-03-23T11:35:20;12.70;;;2.50;;
61903;SDS011;47857;52.270;6.804;2023-03-23T11:37:54;11.02;;;2.30;;
61903;SDS011;47857;52.270;6.804;2023-03-23T11:40:24;8.60;;;2.20;;
61903;SDS011;47857;52.270;6.804;2023-03-23T11:42:58;11.93;;;2.40;;
61903;SDS011;47857;52.270;6.804;2023-03-23T11:56:28;11.60;;;2.08;;
61903;SDS011;47857;52.270;6.804;2023-03-23T11:58:56;11.63;;;2.10;;
61903;SDS011;47857;52.270;6.804;2023-03-23T12:06:48;11.55;;;2.30;;
61903;SDS011;47857;52.270;6.804;2023-03-23T12:11:56;13.18;;;2.85;;
61903;SDS011;47857;52.270;6.804;2023-03-23T12:17:25;13.55;;;4.72;;
61903;SDS011;47857;52.270;6.804;2023-03-23T12:20:10;13.10;;;3.20;;
61903;SDS011;47857;52.270;6.804;2023-03-23T12:27:55;13.05;;;2.20;;
61903;SDS011;47857;52.270;6.804;2023-03-23T12:30:35;9.65;;;2.20;;
61903;SDS011;47857;52.270;6.804;2023-03-23T12:33:17;8.93;;;2.20;;
61903;SDS011;47857;52.270;6.804;2023-03-23T12:41:14;10.98;;;2.13;;
61903;SDS011;47857;52.270;6.804;2023-03-23T12:43:51;9.88;;;2.30;;
61903;SDS011;47857;52.270;6.804;2023-03-23T12:46:43;9.52;;;2.28;;
61903;SDS011;47857;52.270;6.804;2023-03-23T12:49:17;8.70;;;2.22;;
61903;SDS011;47857;52.270;6.804;2023-03-23T12:52:22;10.38;;;2.63;;
61903;SDS011;47857;52.270;6.804;2023-03-23T12:54:58;8.68;;;2.80;;
61903;SDS011;47857;52.270;6.804;2023-03-23T13:00:03;9.70;;;2.45;;
61903;SDS011;47857;52.270;6.804;2023-03-23T13:02:56;11.00;;;2.03;;
61903;SDS011;47857;52.270;6.804;2023-03-23T13:10:47;11.68;;;1.98;;
61903;SDS011;47857;52.270;6.804;2023-03-23T13:13:23;7.35;;;1.73;;
61903;SDS011;47857;52.270;6.804;2023-03-23T13:19:00;9.68;;;2.10;;
61903;SDS011;47857;52.270;6.804;2023-03-23T13:21:38;8.07;;;1.70;;
61903;SDS011;47857;52.270;6.804;2023-03-23T13:24:10;6.97;;;1.85;;
61903;SDS011;47857;52.270;6.804;2023-03-23T13:26:40;6.85;;;1.30;;
61903;SDS011;47857;52.270;6.804;2023-03-23T13:29:14;6.50;;;1.50;;
61903;SDS011;47857;52.270;6.804;2023-03-23T13:31:44;7.15;;;1.10;;
61903;SDS011;47857;52.270;6.804;2023-03-23T13:36:53;7.25;;;1.50;;
61903;SDS011;47857;52.270;6.804;2023-03-23T13:39:20;5.18;;;1.60;;
61903;SDS011;47857;52.270;6.804;2023-03-23T13:42:34;5.63;;;1.77;;
61903;SDS011;47857;52.270;6.804;2023-03-23T13:47:20;7.25;;;2.17;;
61903;SDS011;47857;52.270;6.804;2023-03-23T13:49:51;7.40;;;2.40;;
61903;SDS011;47857;52.270;6.804;2023-03-23T13:52:21;9.55;;;2.60;;
61903;SDS011;47857;52.270;6.804;2023-03-23T13:57:50;7.22;;;1.90;;
61903;SDS011;47857;52.270;6.804;2023-03-23T14:03:11;8.68;;;3.50;;
61903;SDS011;47857;52.270;6.804;2023-03-23T14:11:01;5.70;;;1.67;;
61903;SDS011;47857;52.270;6.804;2023-03-23T14:13:42;6.00;;;1.27;;
61903;SDS011;47857;52.270;6.804;2023-03-23T14:16:15;9.00;;;1.20;;
61903;SDS011;47857;52.270;6.804;2023-03-23T14:18:47;3.17;;;1.30;;
61903;SDS011;47857;52.270;6.804;2023-03-23T14:21:17;6.20;;;1.80;;
61903;SDS011;47857;52.270;6.804;2023-03-23T14:23:46;4.28;;;1.40;;
61903;SDS011;47857;52.270;6.804;2023-03-23T14:26:15;5.25;;;1.42;;
61903;SDS011;47857;52.270;6.804;2023-03-23T14:28:45;5.93;;;1.40;;
61903;SDS011;47857;52.270;6.804;2023-03-23T14:31:19;5.15;;;1.70;;
61903;SDS011;47857;52.270;6.804;2023-03-23T14:33:46;5.93;;;1.95;;
61903;SDS011;47857;52.270;6.804;2023-03-23T14:36:29;5.68;;;1.90;;
61903;SDS011;47857;52.270;6.804;2023-03-23T14:38:57;6.28;;;2.33;;
61903;SDS011;47857;52.270;6.804;2023-03-23T14:41:31;5.18;;;1.90;;
61903;SDS011;47857;52.270;6.804;2023-03-23T14:44:01;5.68;;;1.58;;
61903;SDS011;47857;52.270;6.804;2023-03-23T14:46:28;6.97;;;1.75;;
61903;SDS011;47857;52.270;6.804;2023-03-23T14:48:55;4.32;;;1.40;;
61903;SDS011;47857;52.270;6.804;2023-03-23T14:51:22;5.13;;;1.40;;
61903;SDS011;47857;52.270;6.804;2023-03-23T14:53:47;5.28;;;1.40;;
61903;SDS011;47857;52.270;6.804;2023-03-23T14:56:16;5.70;;;1.30;;
61903;SDS011;47857;52.270;6.804;2023-03-23T14:58:46;7.70;;;1.77;;
61903;SDS011;47857;52.270;6.804;2023-03-23T15:01:14;6.18;;;1.77;;
61903;SDS011;47857;52.270;6.804;2023-03-23T15:03:49;4.00;;;1.30;;
61903;SDS011;47857;52.270;6.804;2023-03-23T15:06:18;9.75;;;3.60;;
61903;SDS011;47857;52.270;6.804;2023-03-23T15:08:46;8.15;;;2.95;;
61903;SDS011;47857;52.270;6.804;2023-03-23T15:13:49;7.38;;;2.33;;
61903;SDS011;47857;52.270;6.804;2023-03-23T15:16:20;8.70;;;3.35;;
61903;SDS011;47857;52.270;6.804;2023-03-23T15:18:55;12.60;;;5.22;;
61903;SDS011;47857;52.270;6.804;2023-03-23T15:21:29;15.02;;;7.03;;
61903;SDS011;47857;52.270;6.804;2023-03-23T15:23:57;9.13;;;3.00;;
61903;SDS011;47857;52.270;6.804;2023-03-23T15:28:59;12.25;;;2.92;;
61903;SDS011;47857;52.270;6.804;2023-03-23T15:31:26;11.32;;;4.03;;
61903;SDS011;47857;52.270;6.804;2023-03-23T15:33:54;7.65;;;2.67;;
61903;SDS011;47857;52.270;6.804;2023-03-23T15:36:22;8.57;;;2.55;;
61903;SDS011;47857;52.270;6.804;2023-03-23T15:38:47;6.85;;;2.47;;
61903;SDS011;47857;52.270;6.804;2023-03-23T15:41:26;6.68;;;2.72;;
61903;SDS011;47857;52.270;6.804;2023-03-23T15:43:54;9.05;;;2.83;;
61903;SDS011;47857;52.270;6.804;2023-03-23T15:46:27;6.93;;;2.70;;
61903;SDS011;47857;52.270;6.804;2023-03-23T15:48:54;10.70;;;2.95;;
61903;SDS011;47857;52.270;6.804;2023-03-23T15:51:32;10.13;;;2.83;;
61903;SDS011;47857;52.270;6.804;2023-03-23T15:53:58;8.00;;;2.15;;
61903;SDS011;47857;52.270;6.804;2023-03-23T15:56:24;7.80;;;2.58;;
61903;SDS011;47857;52.270;6.804;2023-03-23T15:58:51;11.85;;;2.78;;
61903;SDS011;47857;52.270;6.804;2023-03-23T16:01:18;7.47;;;2.78;;
61903;SDS011;47857;52.270;6.804;2023-03-23T16:03:47;7.18;;;2.10;;
61903;SDS011;47857;52.270;6.804;2023-03-23T16:06:29;9.23;;;2.30;;
61903;SDS011;47857;52.270;6.804;2023-03-23T16:08:56;9.40;;;2.55;;
61903;SDS011;47857;52.270;6.804;2023-03-23T16:11:22;8.95;;;2.35;;
61903;SDS011;47857;52.270;6.804;2023-03-23T16:13:49;10.02;;;2.75;;
61903;SDS011;47857;52.270;6.804;2023-03-23T16:18:40;8.77;;;2.22;;
61903;SDS011;47857;52.270;6.804;2023-03-23T16:21:06;10.38;;;3.58;;
61903;SDS011;47857;52.270;6.804;2023-03-23T16:23:32;15.32;;;7.10;;
61903;SDS011;47857;52.270;6.804;2023-03-23T16:25:57;14.18;;;6.75;;
61903;SDS011;47857;52.270;6.804;2023-03-23T16:28:23;14.68;;;4.47;;
61903;SDS011;47857;52.270;6.804;2023-03-23T16:30:48;16.83;;;7.05;;
61903;SDS011;47857;52.270;6.804;2023-03-23T16:33:14;19.05;;;7.88;;
61903;SDS011;47857;52.270;6.804;2023-03-23T16:35:40;17.17;;;7.70;;
61903;SDS011;47857;52.270;6.804;2023-03-23T16:38:06;20.40;;;10.18;;
61903;SDS011;47857;52.270;6.804;2023-03-23T16:40:32;9.82;;;4.22;;
61903;SDS011;47857;52.270;6.804;2023-03-23T16:42:57;9.35;;;3.13;;
61903;SDS011;47857;52.270;6.804;2023-03-23T16:45:23;7.07;;;2.92;;
61903;SDS011;47857;52.270;6.804;2023-03-23T16:47:50;10.55;;;3.40;;
61903;SDS011;47857;52.270;6.804;2023-03-23T16:50:16;7.13;;;2.70;;
61903;SDS011;47857;52.270;6.804;2023-03-23T16:52:43;6.43;;;2.08;;
61903;SDS011;47857;52.270;6.804;2023-03-23T16:55:11;7.78;;;2.10;;
61903;SDS011;47857;52.270;6.804;2023-03-23T16:57:37;6.50;;;2.00;;
61903;SDS011;47857;52.270;6.804;2023-03-23T17:00:05;7.82;;;2.55;;
61903;SDS011;47857;52.270;6.804;2023-03-23T17:02:32;8.43;;;2.05;;
61903;SDS011;47857;52.270;6.804;2023-03-23T17:04:58;6.88;;;1.90;;
61903;SDS011;47857;52.270;6.804;2023-03-23T17:07:25;7.63;;;1.92;;
61903;SDS011;47857;52.270;6.804;2023-03-23T17:09:50;7.57;;;2.08;;